createdAt,value
2023-02-16T00:01:46.966Z,27.23
2023-02-16T00:04:19.881Z,26.93
2023-02-16T00:06:47.492Z,27.60
2023-02-16T00:09:14.602Z,26.97
2023-02-16T00:12:01.197Z,26.60
2023-02-16T00:14:28.455Z,25.97
2023-02-16T00:16:59.669Z,25.67
2023-02-16T00:19:44.637Z,26.53
2023-02-16T00:22:11.447Z,26.20
2023-02-16T00:24:38.203Z,26.10
2023-02-16T00:27:14.009Z,25.83
2023-02-16T00:29:40.846Z,26.97
2023-02-16T00:32:10.931Z,25.47
2023-02-16T00:34:41.938Z,26.17
2023-02-16T00:37:11.078Z,25.73
2023-02-16T00:39:39.208Z,26.23
2023-02-16T00:42:29.343Z,25.67
2023-02-16T00:44:57.774Z,25.67
2023-02-16T00:47:38.322Z,25.70
2023-02-16T00:50:17.053Z,26.97
2023-02-16T00:52:46.293Z,26.13
2023-02-16T00:55:27.667Z,25.57
2023-02-16T00:58:04.952Z,25.23
2023-02-16T01:00:39.544Z,25.27
2023-02-16T01:03:14.208Z,23.73
2023-02-16T01:05:41.064Z,26.33
2023-02-16T01:08:35.138Z,25.10
2023-02-16T01:11:07.604Z,25.30
2023-02-16T01:13:44.702Z,25.33
2023-02-16T01:16:18.859Z,25.13
2023-02-16T01:18:46.695Z,24.63
2023-02-16T01:21:13.892Z,25.47
2023-02-16T01:23:41.507Z,24.77
2023-02-16T01:26:17.479Z,26.57
2023-02-16T01:28:45.333Z,25.47
2023-02-16T01:31:13.439Z,24.80
2023-02-16T01:33:42.296Z,25.07
2023-02-16T01:36:33.899Z,24.77
2023-02-16T01:39:01.901Z,25.23
2023-02-16T01:41:52.271Z,25.83
2023-02-16T01:44:55.797Z,24.13
2023-02-16T01:47:39.541Z,25.10
2023-02-16T01:50:55.809Z,24.43
2023-02-16T01:53:31.072Z,23.27
2023-02-16T01:56:03.950Z,25.47
2023-02-16T01:58:45.992Z,25.07
2023-02-16T02:01:38.564Z,25.00
2023-02-16T02:04:52.690Z,25.00
2023-02-16T02:07:36.081Z,24.87
2023-02-16T02:10:24.256Z,25.93
2023-02-16T02:13:22.511Z,23.63
2023-02-16T02:15:49.634Z,25.13
2023-02-16T02:18:16.506Z,25.53
2023-02-16T02:21:18.126Z,25.87
2023-02-16T02:24:03.848Z,25.70
2023-02-16T02:26:33.983Z,25.10
2023-02-16T02:29:03.708Z,24.23
2023-02-16T02:31:39.563Z,25.93
2023-02-16T02:34:15.505Z,26.53
2023-02-16T02:36:50.923Z,23.97
2023-02-16T02:39:17.902Z,26.30
2023-02-16T02:42:05.458Z,25.80
2023-02-16T02:44:52.438Z,24.93
2023-02-16T02:47:19.711Z,25.43
2023-02-16T02:49:51.878Z,24.33
2023-02-16T02:52:19.922Z,25.93
2023-02-16T02:55:07.410Z,24.53
2023-02-16T02:57:55.973Z,25.40
2023-02-16T03:00:48.110Z,25.67
2023-02-16T03:03:35.404Z,24.70
2023-02-16T03:06:21.331Z,24.53
2023-02-16T03:08:54.911Z,26.20
2023-02-16T03:11:48.181Z,26.90
2023-02-16T03:14:22.711Z,26.20
2023-02-16T03:17:30.869Z,27.00
2023-02-16T03:20:18.683Z,26.10
2023-02-16T03:23:04.922Z,26.97
2023-02-16T03:25:54.285Z,24.50
2023-02-16T03:28:43.683Z,26.70
2023-02-16T03:31:14.056Z,27.07
2023-02-16T03:33:41.565Z,26.60
2023-02-16T03:36:09.593Z,26.07
2023-02-16T03:38:37.822Z,28.13
2023-02-16T03:41:05.886Z,26.53
2023-02-16T03:43:33.045Z,26.17
2023-02-16T03:46:00.339Z,25.60
2023-02-16T03:48:27.574Z,29.97
2023-02-16T03:50:54.677Z,28.03
2023-02-16T03:53:21.485Z,26.93
2023-02-16T03:55:49.125Z,27.60
2023-02-16T03:58:22.567Z,27.60
2023-02-16T04:00:50.441Z,27.40
2023-02-16T04:03:18.030Z,29.00
2023-02-16T04:05:45.317Z,27.90
2023-02-16T04:08:12.816Z,27.60
2023-02-16T04:10:40.227Z,28.80
2023-02-16T04:13:07.289Z,27.90
2023-02-16T04:15:34.290Z,26.80
2023-02-16T04:18:01.391Z,27.77
2023-02-16T04:20:31.291Z,25.97
2023-02-16T04:22:58.572Z,29.10
2023-02-16T04:25:25.847Z,28.10
2023-02-16T04:27:53.391Z,29.03
2023-02-16T04:30:26.406Z,28.00
2023-02-16T04:32:53.416Z,27.80
2023-02-16T04:35:20.819Z,28.20
2023-02-16T04:37:47.828Z,27.53
2023-02-16T04:40:16.851Z,28.50
2023-02-16T04:42:44.348Z,26.70
2023-02-16T04:45:12.265Z,26.70
2023-02-16T04:47:39.070Z,27.37
2023-02-16T04:50:06.691Z,26.97
2023-02-16T04:52:34.345Z,27.53
2023-02-16T04:55:01.265Z,27.23
2023-02-16T04:57:28.040Z,27.47
2023-02-16T04:59:55.283Z,28.63
2023-02-16T05:02:22.109Z,28.60
2023-02-16T05:04:48.980Z,28.47
2023-02-16T05:07:15.704Z,27.87
2023-02-16T05:09:42.535Z,28.47
2023-02-16T05:12:29.718Z,27.13
2023-02-16T05:14:56.436Z,27.77
2023-02-16T05:17:25.900Z,28.20
2023-02-16T05:19:54.954Z,27.67
2023-02-16T05:22:22.075Z,28.43
2023-02-16T05:24:49.307Z,27.77
2023-02-16T05:27:18.685Z,28.83
2023-02-16T05:29:45.465Z,27.37
2023-02-16T05:32:12.897Z,28.83
2023-02-16T05:34:39.816Z,28.37
2023-02-16T05:37:06.875Z,26.47
2023-02-16T05:39:33.708Z,28.93
2023-02-16T05:42:00.612Z,27.80
2023-02-16T05:44:27.529Z,28.03
2023-02-16T05:46:54.417Z,25.80
2023-02-16T05:49:21.261Z,28.00
2023-02-16T05:51:48.045Z,27.83
2023-02-16T05:54:17.993Z,27.97
2023-02-16T05:56:50.799Z,27.57
2023-02-16T05:59:17.769Z,28.20
2023-02-16T06:01:48.667Z,28.33
2023-02-16T06:04:18.411Z,28.50
2023-02-16T06:06:45.261Z,27.67
2023-02-16T06:09:12.271Z,27.47
2023-02-16T06:11:39.192Z,27.37
2023-02-16T06:14:15.044Z,26.73
2023-02-16T06:16:44.589Z,26.50
2023-02-16T06:19:12.093Z,27.53
2023-02-16T06:21:40.026Z,26.03
2023-02-16T06:24:08.695Z,28.70
2023-02-16T06:26:36.289Z,27.77
2023-02-16T06:29:03.644Z,27.93
2023-02-16T06:31:30.585Z,27.50
2023-02-16T06:33:57.665Z,26.90
2023-02-16T06:36:25.006Z,27.87
2023-02-16T06:38:52.432Z,28.13
2023-02-16T06:41:31.685Z,26.33
2023-02-16T06:44:00.050Z,26.10
2023-02-16T06:46:27.610Z,26.90
2023-02-16T06:48:54.695Z,26.70
2023-02-16T06:51:21.562Z,26.70
2023-02-16T06:53:48.341Z,27.80
2023-02-16T06:56:15.175Z,27.77
2023-02-16T06:58:42.364Z,27.90
2023-02-16T07:01:09.128Z,24.93
2023-02-16T07:03:36.009Z,26.80
2023-02-16T07:06:02.952Z,26.83
2023-02-16T07:08:29.853Z,26.93
2023-02-16T07:10:56.821Z,26.97
2023-02-16T07:13:23.551Z,27.17
2023-02-16T07:15:50.466Z,27.30
2023-02-16T07:18:17.298Z,26.33
2023-02-16T07:20:44.075Z,26.87
2023-02-16T07:23:10.878Z,26.63
2023-02-16T07:25:37.560Z,27.10
2023-02-16T07:28:04.652Z,26.33
2023-02-16T07:30:31.754Z,26.80
2023-02-16T07:32:58.602Z,26.50
2023-02-16T07:35:25.528Z,26.40
2023-02-16T07:37:52.339Z,25.90
2023-02-16T07:40:19.204Z,26.53
2023-02-16T07:42:45.935Z,25.80
2023-02-16T07:45:12.756Z,25.77
2023-02-16T07:47:39.607Z,26.00
2023-02-16T07:50:06.936Z,26.23
2023-02-16T07:52:34.625Z,25.83
2023-02-16T07:55:01.588Z,25.57
2023-02-16T07:57:28.991Z,26.17
2023-02-16T07:59:56.690Z,25.27
2023-02-16T08:02:23.972Z,26.63
2023-02-16T08:04:52.863Z,25.10
2023-02-16T08:07:20.106Z,24.60
2023-02-16T08:09:47.415Z,26.03
2023-02-16T08:12:16.038Z,25.33
2023-02-16T08:14:43.677Z,25.23
2023-02-16T08:17:10.719Z,25.17
2023-02-16T08:19:37.466Z,24.43
2023-02-16T08:22:04.881Z,24.97
2023-02-16T08:24:31.911Z,26.23
2023-02-16T08:26:58.713Z,25.03
2023-02-16T08:29:25.586Z,24.70
2023-02-16T08:31:53.444Z,25.80
2023-02-16T08:34:21.251Z,25.90
2023-02-16T08:36:52.929Z,25.73
2023-02-16T08:39:22.929Z,24.83
2023-02-16T08:41:50.624Z,24.03
2023-02-16T08:44:19.098Z,25.60
2023-02-16T08:46:47.721Z,23.67
2023-02-16T08:49:17.351Z,24.10
2023-02-16T08:51:47.386Z,23.57
2023-02-16T08:54:20.816Z,24.77
2023-02-16T08:56:49.554Z,24.47
2023-02-16T08:59:17.827Z,24.03
2023-02-16T09:01:45.168Z,24.07
2023-02-16T09:04:13.119Z,24.10
2023-02-16T09:06:42.550Z,23.33
2023-02-16T09:09:10.190Z,25.07
2023-02-16T09:11:37.597Z,24.07
2023-02-16T09:14:04.858Z,23.27
2023-02-16T09:16:38.328Z,24.67
2023-02-16T09:19:06.504Z,22.80
2023-02-16T09:21:33.522Z,22.57
2023-02-16T09:24:05.034Z,23.53
2023-02-16T09:26:34.450Z,23.93
2023-02-16T09:29:02.208Z,23.77
2023-02-16T09:31:32.583Z,22.93
2023-02-16T09:34:20.485Z,24.70
2023-02-16T09:36:47.412Z,23.63
2023-02-16T09:39:14.769Z,23.33
2023-02-16T09:41:53.704Z,23.10
2023-02-16T09:44:45.814Z,23.77
2023-02-16T09:47:19.936Z,23.83
2023-02-16T09:49:48.489Z,25.00
2023-02-16T09:52:26.230Z,24.60
2023-02-16T09:54:55.908Z,25.60
2023-02-16T09:57:31.520Z,25.50
2023-02-16T10:00:07.855Z,26.63
2023-02-16T10:02:59.547Z,24.80
2023-02-16T10:05:31.124Z,26.73
2023-02-16T10:08:09.510Z,26.10
2023-02-16T10:10:43.148Z,23.90
2023-02-16T10:13:17.877Z,25.73
2023-02-16T10:15:46.098Z,25.07
2023-02-16T10:18:35.286Z,25.67
2023-02-16T10:21:08.015Z,26.07
2023-02-16T10:23:49.740Z,26.10
2023-02-16T10:26:40.653Z,26.47
2023-02-16T10:29:13.987Z,27.27
2023-02-16T10:31:44.510Z,24.57
2023-02-16T10:34:23.386Z,24.67
2023-02-16T10:37:12.138Z,25.50
2023-02-16T10:40:01.604Z,25.63
2023-02-16T10:42:38.805Z,24.57
2023-02-16T10:45:15.561Z,23.87
2023-02-16T10:47:45.212Z,26.90
2023-02-16T10:50:52.465Z,25.77
2023-02-16T10:53:27.223Z,27.03
2023-02-16T10:55:57.304Z,25.80
2023-02-16T10:58:38.303Z,26.17
2023-02-16T11:01:12.033Z,26.40
2023-02-16T11:03:46.616Z,26.33
2023-02-16T11:06:19.315Z,26.10
2023-02-16T11:08:59.947Z,26.73
2023-02-16T11:11:47.023Z,28.00
2023-02-16T11:14:24.028Z,27.17
2023-02-16T11:17:23.930Z,27.47
2023-02-16T11:19:53.173Z,25.70
2023-02-16T11:22:37.112Z,25.70
2023-02-16T11:25:22.004Z,26.77
2023-02-16T11:28:08.287Z,25.07
2023-02-16T11:30:38.240Z,25.23
2023-02-16T11:33:27.097Z,26.60
2023-02-16T11:35:55.304Z,26.73
2023-02-16T11:38:34.463Z,24.97
2023-02-16T11:41:07.220Z,25.80
2023-02-16T11:43:37.617Z,26.13
2023-02-16T11:46:18.590Z,27.83
2023-02-16T11:48:46.196Z,27.60
2023-02-16T11:51:15.580Z,26.13
2023-02-16T11:53:44.260Z,25.73
2023-02-16T11:56:24.677Z,25.23
2023-02-16T11:59:03.691Z,24.70
2023-02-16T12:02:08.637Z,25.30
2023-02-16T12:05:03.338Z,25.57
2023-02-16T12:07:55.864Z,25.63
2023-02-16T12:10:38.804Z,26.00
2023-02-16T12:13:26.502Z,25.17
2023-02-16T12:16:27.076Z,25.77
2023-02-16T12:19:21.109Z,26.57
2023-02-16T12:21:52.265Z,26.00
2023-02-16T12:24:27.926Z,25.77
2023-02-16T12:26:58.409Z,24.97
2023-02-16T12:29:31.270Z,25.83
2023-02-16T12:32:04.389Z,24.47
2023-02-16T12:34:45.273Z,25.57
2023-02-16T12:37:31.652Z,23.93
2023-02-16T12:40:41.141Z,23.57
2023-02-16T12:43:38.937Z,22.57
2023-02-16T12:46:27.022Z,21.10
2023-02-16T12:49:21.138Z,20.67
2023-02-16T12:52:18.309Z,22.77
2023-02-16T12:54:55.493Z,20.80
2023-02-16T12:57:30.558Z,22.97
2023-02-16T13:00:35.019Z,20.83
2023-02-16T13:03:19.887Z,21.03
2023-02-16T13:05:53.281Z,20.47
2023-02-16T13:08:50.221Z,18.87
2023-02-16T13:11:22.295Z,19.07
2023-02-16T13:13:52.099Z,18.13
2023-02-16T13:16:33.100Z,17.97
2023-02-16T13:18:59.872Z,18.43
2023-02-16T13:21:53.857Z,18.73
2023-02-16T13:24:39.462Z,18.03
2023-02-16T13:27:12.250Z,19.03
2023-02-16T13:30:01.350Z,19.27
2023-02-16T13:32:51.657Z,15.20
2023-02-16T13:35:59.680Z,19.00
2023-02-16T13:38:51.425Z,16.40
2023-02-16T13:41:36.783Z,16.80
2023-02-16T13:44:15.224Z,17.07
2023-02-16T13:46:53.074Z,18.80
2023-02-16T13:49:42.563Z,17.60
2023-02-16T13:52:11.944Z,16.23
2023-02-16T13:54:43.699Z,17.40
2023-02-16T13:57:18.378Z,15.17
2023-02-16T13:59:49.990Z,16.13
2023-02-16T14:03:02.879Z,15.03
2023-02-16T14:05:34.249Z,16.43
2023-02-16T14:08:28.331Z,15.37
2023-02-16T14:10:57.349Z,16.13
2023-02-16T14:13:36.134Z,15.57
2023-02-16T14:16:17.791Z,15.50
2023-02-16T14:18:54.608Z,15.57
2023-02-16T14:21:32.191Z,14.90
2023-02-16T14:24:03.076Z,15.63
2023-02-16T14:26:31.838Z,14.93
2023-02-16T14:29:09.866Z,16.47
2023-02-16T14:31:59.046Z,14.00
2023-02-16T14:34:31.362Z,14.67
2023-02-16T14:37:23.323Z,14.40
2023-02-16T14:40:07.447Z,15.33
2023-02-16T14:42:35.928Z,15.17
2023-02-16T14:45:19.950Z,14.90
2023-02-16T14:48:26.780Z,15.20
2023-02-16T14:51:18.122Z,15.30
2023-02-16T14:53:51.269Z,15.20
2023-02-16T14:56:31.352Z,15.80
2023-02-16T14:59:13.424Z,14.90
2023-02-16T15:01:44.882Z,14.83
2023-02-16T15:04:12.198Z,14.13
2023-02-16T15:06:42.770Z,14.73
2023-02-16T15:09:24.023Z,13.47
2023-02-16T15:12:15.460Z,14.10
2023-02-16T15:14:51.764Z,12.53
2023-02-16T15:17:33.905Z,13.00
2023-02-16T15:20:19.978Z,12.83
2023-02-16T15:22:58.690Z,13.43
2023-02-16T15:25:32.548Z,13.37
2023-02-16T15:28:04.348Z,13.23
2023-02-16T15:30:34.378Z,13.63
2023-02-16T15:33:07.420Z,12.83
2023-02-16T15:35:40.281Z,12.83
2023-02-16T15:38:19.668Z,11.57
2023-02-16T15:40:46.598Z,13.13
2023-02-16T15:43:34.554Z,12.67
2023-02-16T15:46:03.904Z,11.33
2023-02-16T15:48:38.378Z,12.67
2023-02-16T15:51:08.037Z,13.53
2023-02-16T15:53:58.654Z,13.73
2023-02-16T15:56:34.756Z,12.60
2023-02-16T15:59:06.401Z,13.07
2023-02-16T16:01:35.283Z,12.50
2023-02-16T16:04:16.869Z,14.53
2023-02-16T16:06:45.747Z,13.17
2023-02-16T16:09:29.210Z,13.47
2023-02-16T16:11:59.024Z,12.90
2023-02-16T16:14:27.388Z,12.67
2023-02-16T16:16:55.014Z,13.33
2023-02-16T16:19:31.877Z,13.40
2023-02-16T16:21:58.917Z,14.03
2023-02-16T16:24:39.235Z,14.00
2023-02-16T16:27:12.302Z,14.93
2023-02-16T16:29:47.798Z,14.60
2023-02-16T16:32:28.797Z,14.63
2023-02-16T16:34:56.312Z,14.50
2023-02-16T16:37:28.829Z,15.20
2023-02-16T16:40:04.189Z,14.27
2023-02-16T16:42:31.527Z,14.73
2023-02-16T16:45:06.964Z,16.00
2023-02-16T16:47:38.223Z,14.80
2023-02-16T16:50:11.066Z,17.50
2023-02-16T16:52:51.145Z,16.27
2023-02-16T16:55:23.649Z,17.50
2023-02-16T16:58:10.665Z,16.20
2023-02-16T17:00:39.836Z,18.53
2023-02-16T17:03:08.365Z,17.40
2023-02-16T17:05:38.346Z,17.77
2023-02-16T17:08:05.958Z,19.07
2023-02-16T17:10:33.082Z,18.30
2023-02-16T17:13:00.652Z,19.07
2023-02-16T17:15:43.292Z,17.97
2023-02-16T17:18:16.147Z,18.13
2023-02-16T17:20:43.306Z,18.50
2023-02-16T17:23:14.924Z,19.17
2023-02-16T17:25:42.587Z,18.37
2023-02-16T17:28:10.577Z,18.63
2023-02-16T17:30:37.878Z,18.67
2023-02-16T17:33:05.037Z,18.63
2023-02-16T17:35:31.895Z,19.03
2023-02-16T17:37:59.163Z,17.27
2023-02-16T17:40:26.052Z,18.07
2023-02-16T17:42:52.803Z,18.00
2023-02-16T17:45:22.091Z,18.67
2023-02-16T17:47:52.004Z,19.40
2023-02-16T17:50:19.827Z,18.80
2023-02-16T17:52:46.576Z,18.23
2023-02-16T17:55:14.154Z,18.27
2023-02-16T17:57:40.981Z,17.03
2023-02-16T18:00:14.148Z,17.50
2023-02-16T18:02:40.896Z,17.13
2023-02-16T18:05:08.133Z,18.57
2023-02-16T18:07:34.888Z,17.53
2023-02-16T18:10:01.715Z,16.17
2023-02-16T18:12:28.657Z,18.40
2023-02-16T18:14:55.412Z,18.37
2023-02-16T18:17:22.217Z,17.97
2023-02-16T18:19:49.004Z,18.27
2023-02-16T18:22:15.720Z,17.97
2023-02-16T18:24:44.344Z,18.77
2023-02-16T18:27:11.322Z,18.27
2023-02-16T18:29:38.145Z,18.50
2023-02-16T18:32:05.265Z,17.67
2023-02-16T18:34:33.358Z,18.00
2023-02-16T18:37:00.113Z,19.00
2023-02-16T18:39:26.901Z,19.67
2023-02-16T18:41:53.627Z,18.27
2023-02-16T18:44:20.386Z,18.00
2023-02-16T18:46:47.209Z,19.37
2023-02-16T18:49:14.099Z,19.07
2023-02-16T18:51:40.812Z,18.50
2023-02-16T18:54:07.499Z,17.83
2023-02-16T18:56:36.525Z,18.33
2023-02-16T18:59:03.476Z,19.30
2023-02-16T19:01:33.216Z,18.33
2023-02-16T19:04:01.748Z,19.20
2023-02-16T19:06:29.164Z,18.67
2023-02-16T19:08:58.431Z,18.17
2023-02-16T19:11:25.550Z,19.23
2023-02-16T19:13:52.305Z,19.90
2023-02-16T19:16:19.167Z,19.33
2023-02-16T19:18:46.159Z,18.77
2023-02-16T19:21:14.828Z,20.33
2023-02-16T19:23:41.996Z,20.13
2023-02-16T19:26:11.469Z,19.23
2023-02-16T19:28:39.366Z,19.47
2023-02-16T19:31:08.060Z,19.83
2023-02-16T19:33:35.396Z,19.67
2023-02-16T19:36:04.855Z,20.37
2023-02-16T19:38:32.013Z,21.47
2023-02-16T19:40:59.722Z,20.43
2023-02-16T19:43:26.920Z,20.57
2023-02-16T19:45:53.788Z,21.67
2023-02-16T19:48:20.575Z,20.53
2023-02-16T19:50:47.487Z,22.23
2023-02-16T19:53:14.263Z,20.30
2023-02-16T19:55:42.513Z,21.40
2023-02-16T19:58:09.394Z,20.43
2023-02-16T20:00:36.921Z,22.27
2023-02-16T20:03:04.308Z,20.57
2023-02-16T20:05:31.116Z,21.67
2023-02-16T20:07:57.880Z,22.27
2023-02-16T20:10:24.837Z,23.13
2023-02-16T20:12:51.642Z,21.63
2023-02-16T20:15:18.532Z,22.23
2023-02-16T20:17:45.341Z,21.63
2023-02-16T20:20:12.798Z,21.57
2023-02-16T20:22:39.522Z,21.90
2023-02-16T20:25:06.482Z,20.57
2023-02-16T20:27:33.409Z,21.80
2023-02-16T20:30:03.014Z,21.87
2023-02-16T20:32:30.440Z,21.13
2023-02-16T20:34:57.161Z,21.07
2023-02-16T20:37:24.062Z,19.80
2023-02-16T20:39:51.159Z,21.13
2023-02-16T20:42:17.934Z,21.10
2023-02-16T20:44:44.683Z,21.37
2023-02-16T20:47:11.483Z,20.93
2023-02-16T20:49:38.295Z,20.93
2023-02-16T20:52:05.262Z,20.17
2023-02-16T20:54:32.004Z,21.27
2023-02-16T20:56:58.928Z,21.10
2023-02-16T20:59:25.726Z,21.30
2023-02-16T21:01:53.122Z,20.63
2023-02-16T21:04:20.624Z,21.80
2023-02-16T21:06:47.623Z,21.17
2023-02-16T21:09:14.817Z,21.17
2023-02-16T21:11:41.993Z,21.63
2023-02-16T21:14:11.785Z,21.77
2023-02-16T21:16:39.595Z,21.30
2023-02-16T21:19:17.244Z,21.07
2023-02-16T21:21:49.184Z,21.70
2023-02-16T21:24:15.954Z,19.87
2023-02-16T21:26:42.904Z,21.37
2023-02-16T21:29:09.644Z,20.50
2023-02-16T21:31:36.618Z,20.87
2023-02-16T21:34:04.069Z,20.73
2023-02-16T21:36:31.008Z,19.20
2023-02-16T21:38:57.748Z,20.20
2023-02-16T21:41:30.229Z,19.00
2023-02-16T21:44:06.920Z,19.90
2023-02-16T21:46:39.790Z,19.40
2023-02-16T21:49:09.732Z,21.37
2023-02-16T21:51:38.289Z,21.17
2023-02-16T21:54:11.324Z,21.27
2023-02-16T21:56:40.069Z,19.90
2023-02-16T21:59:13.328Z,20.17
2023-02-16T22:01:43.212Z,19.17
2023-02-16T22:04:15.759Z,20.33
2023-02-16T22:06:45.416Z,19.10
2023-02-16T22:09:18.320Z,18.87
2023-02-16T22:11:45.929Z,19.47
2023-02-16T22:14:12.986Z,20.50
2023-02-16T22:16:39.962Z,20.97
2023-02-16T22:19:11.436Z,20.67
2023-02-16T22:21:39.980Z,19.87
2023-02-16T22:24:07.696Z,19.10
2023-02-16T22:26:35.774Z,18.83
2023-02-16T22:29:07.256Z,20.23
2023-02-16T22:31:34.296Z,18.37
2023-02-16T22:34:03.476Z,16.57
2023-02-16T22:36:30.512Z,14.77
2023-02-16T22:38:57.487Z,13.83
2023-02-16T22:41:25.312Z,12.57
2023-02-16T22:43:54.245Z,11.97
2023-02-16T22:46:22.156Z,10.63
2023-02-16T22:48:49.502Z,10.23
2023-02-16T22:51:18.058Z,9.63
2023-02-16T22:53:45.279Z,9.17
2023-02-16T22:56:14.754Z,9.60
2023-02-16T22:58:41.650Z,7.73
2023-02-16T23:01:16.780Z,8.30
2023-02-16T23:03:45.928Z,8.53
2023-02-16T23:06:15.001Z,7.57
2023-02-16T23:08:43.179Z,7.73
2023-02-16T23:11:10.375Z,6.83
2023-02-16T23:13:37.601Z,8.23
2023-02-16T23:16:10.854Z,7.20
2023-02-16T23:18:37.831Z,6.17
2023-02-16T23:21:31.459Z,7.37
2023-02-16T23:23:59.266Z,6.20
2023-02-16T23:26:29.730Z,5.67
2023-02-16T23:29:00.786Z,6.10
2023-02-16T23:31:30.626Z,6.03
2023-02-16T23:33:57.544Z,6.33
2023-02-16T23:36:24.372Z,5.87
2023-02-16T23:38:51.253Z,6.57
2023-02-16T23:41:18.045Z,6.63
2023-02-16T23:43:44.791Z,6.80
2023-02-16T23:46:11.867Z,6.00
2023-02-16T23:48:38.759Z,6.63
2023-02-16T23:51:06.359Z,6.53
2023-02-16T23:53:33.398Z,6.53
2023-02-16T23:56:09.392Z,6.90
2023-02-16T23:58:41.043Z,6.70
